Station: Minnipa Rs

  Atmospheric Gas Attenuation - ITU Rec 676-11   --------------- db/100km ---------------
Date Time Temp RH % AH g/m3 Dew Point Wind Direction Speed kph Gust kph Barometer mB Rainfall Since 9am 24GHz 47GHz 76GHz 122GHz 134GHz 241GHz
03 08:20 14.4 69 8.53 8.8 30 35 1020.7 0 19.4 25.9 39.5 103.7 97.3 334.7
03 08:10 14.5 70 8.71 9.1 22 28 1020.8 0 19.8 26.2 40.2 105.5 99.6 342.6
03 08:00 14.3 71 8.72 9.1 22 30 1021 0 19.8 26.2 40.4 105.9 100.0 344.0
03 07:50 13.9 73 8.75 9.1 20 24 1020.3 0 19.9 26.4 40.7 106.7 100.8 347.0
03 07:40 13.5 74 8.66 9 26 30 1019.9 0 19.7 26.3 40.5 106.2 100.1 344.4
03 07:30 13.2 76 8.73 9.1 22 28 1020.2 0 19.9 26.5 40.9 107.4 101.5 349.1
03 07:20 13.1 77 8.79 9.2 17 22 1020.1 0 20.0 26.7 41.2 108.2 102.4 352.4
03 07:10 12.7 78 8.68 9 22 22 1020.1 0 19.8 26.6 41.0 107.5 101.5 349.0
03 07:00 12.6 78 8.63 8.9 24 33 1019.4 0 19.7 26.5 40.8 107.0 100.9 346.8
03 06:50 12.5 79 8.69 9 20 22 1019.9 0 19.8 26.7 41.1 107.9 101.8 350.3
03 06:40 12.3 79 8.58 8.8 19 19 1020.3 0 19.6 26.6 40.8 107.0 100.6 346.1
03 06:30 12.1 79 8.47 8.6 13 19 1021.2 0 19.4 26.5 40.5 106.2 99.5 342.0
03 06:20 12.1 79 8.47 8.6 17 19 1020.1 0 19.4 26.4 40.4 106.0 99.4 341.7
03 06:10 12.1 79 8.47 8.6 9 11 1020.4 0 19.4 26.5 40.5 106.1 99.4 341.8
03 06:00 12.1 79 8.47 8.6 17 22 1019.3 0 19.4 26.4 40.4 106.0 99.3 341.5
03 05:50 12.2 79 8.53 8.7 17 20 1019.2 0 19.5 26.5 40.6 106.5 100.0 343.8
03 05:40 12.2 78 8.42 8.5 15 17 1019.3 0 19.3 26.3 40.1 105.3 98.5 338.7
03 05:30 12.1 78 8.37 8.4 22 30 1018.7 0 19.2 26.2 40.0 104.8 97.9 336.6
03 05:20 12.1 78 8.37 8.4 26 32 1018.1 0 19.2 26.2 39.9 104.7 97.9 336.4
03 05:00 12.4 77 8.41 8.5 17 22 1019.4 0 19.2 26.2 40.0 104.9 98.1 337.4
03 04:50 12.2 77 8.31 8.3 22 24 1018.6 0 19.0 26.1 39.7 104.0 97.0 333.3
03 04:40 12.3 77 8.36 8.4 19 20 1018.4 0 19.1 26.1 39.8 104.4 97.5 335.2
03 04:30 12.3 77 8.36 8.4 22 30 1017.9 0 19.1 26.1 39.8 104.3 97.5 335.0
03 04:20 12.3 76 8.25 8.2 19 22 1018.3 0 18.9 26.0 39.4 103.2 96.0 330.0
03 04:10 12.3 76 8.25 8.2 20 24 1018.5 0 18.9 26.0 39.4 103.2 96.1 330.0
03 04:00 12.2 76 8.2 8.1 20 28 1018.4 0 18.8 25.9 39.2 102.8 95.5 328.1
03 03:50 12.3 75 8.14 8 20 26 1018.4 0 18.7 25.8 38.9 102.0 94.6 324.9
03 03:40 12.5 74 8.14 8 20 22 1018.7 0 18.7 25.7 38.8 101.8 94.4 324.1
03 03:30 12.6 74 8.19 8.1 20 28 1018.9 0 18.8 25.8 39.0 102.2 94.9 326.1
03 03:20 12.7 73 8.13 8 20 22 1018.7 0 18.6 25.7 38.7 101.4 94.0 322.8
03 03:10 12.8 73 8.18 8.1 20 24 1018.6 0 18.7 25.7 38.8 101.8 94.5 324.7
03 03:00 12.9 72 8.12 8 20 30 1018.6 0 18.6 25.6 38.6 101.0 93.6 321.5
03 02:50 13 71 8.05 7.9 20 28 1018.6 0 18.4 25.4 38.2 100.2 92.6 317.9
03 02:40 13.2 71 8.15 8.1 19 19 1019 0 18.7 25.6 38.5 101.0 93.7 321.8
03 02:30 13.3 70 8.09 8 19 28 1019.2 0 18.5 25.4 38.3 100.3 92.8 318.7
03 02:20 13.5 69 8.07 7.9 19 22 1019.4 0 18.5 25.4 38.1 99.8 92.3 317.0
03 02:10 13.7 68 8.05 7.9 19 22 1019.3 0 18.4 25.3 37.9 99.4 91.8 315.3
03 02:00 13.8 67 7.98 7.8 20 30 1019.1 0 18.3 25.1 37.6 98.5 90.8 311.6
03 01:50 13.8 67 7.98 7.8 26 30 1019.2 0 18.3 25.1 37.6 98.5 90.8 311.7
03 01:40 13.9 66 7.91 7.7 26 32 1019.2 0 18.1 25.0 37.3 97.6 89.7 308.1
03 01:30 14 65 7.84 7.5 28 37 1019 0 18.0 24.8 36.9 96.7 88.7 304.5
03 01:20 14.2 64 7.82 7.5 22 28 1019.4 0 17.9 24.8 36.8 96.3 88.3 302.9
03 01:10 14.3 63 7.74 7.4 28 33 1019.5 0 17.7 24.6 36.4 95.4 87.1 299.0
03 01:00 14.5 60 7.46 6.8 24 35 1019.7 0 17.1 24.1 35.3 92.3 83.4 285.9
03 00:50 14.7 60 7.55 7 22 28 1020 0 17.3 24.2 35.5 93.0 84.3 289.2
03 00:40 14.8 59 7.47 6.9 26 30 1020.6 0 17.1 24.1 35.2 92.1 83.2 285.5
03 00:30 15 57 7.31 6.6 24 33 1020.4 0 16.8 23.8 34.5 90.3 81.0 277.7
03 00:20 14.9 57 7.26 6.5 24 30 1020 0 16.7 23.7 34.4 89.8 80.5 275.8
03 00:10 14.6 60 7.51 6.9 17 19 1020.3 0 17.2 24.2 35.5 92.8 83.9 287.9
03 00:00 14.7 60 7.55 7 19 26 1020.6 0 17.3 24.3 35.6 93.1 84.4 289.3
02 23:50 14.8 60 7.6 7.1 20 22 1020.4 0 17.4 24.3 35.7 93.5 84.9 291.1
02 23:40 14.8 61 7.73 7.4 19 22 1020.4 0 17.7 24.5 36.2 94.8 86.5 296.9
02 23:30 14.8 62 7.85 7.6 19 26 1020.3 0 17.9 24.7 36.7 96.0 88.0 302.2
02 23:20 14.8 62 7.85 7.6 20 24 1020.1 0 17.9 24.7 36.7 96.0 88.0 302.2
02 23:10 14.8 62 7.85 7.6 17 19 1020.4 0 17.9 24.7 36.7 96.0 88.0 302.2
02 23:00 14.9 61 7.77 7.5 20 30 1020.2 0 17.8 24.5 36.3 95.1 86.9 298.3
02 22:50 15 62 7.95 7.8 22 26 1020.1 0 18.1 24.8 37.0 96.8 89.1 305.9
02 22:40 15 62 7.95 7.8 24 28 1019.8 0 18.1 24.8 36.9 96.8 89.0 305.8
02 22:30 15 61 7.82 7.5 20 28 1020 0 17.9 24.6 36.5 95.4 87.4 300.1
02 22:20 15.1 61 7.87 7.6 24 28 1020.2 0 18.0 24.6 36.6 95.8 87.9 302.0
02 22:10 15.3 60 7.84 7.6 22 26 1020.1 0 17.9 24.5 36.4 95.3 87.3 299.8
02 22:00 15.4 59 7.75 7.4 22 28 1020.1 0 17.7 24.4 36.0 94.2 86.1 295.5
02 21:50 15.4 59 7.75 7.4 22 28 1020.1 0 17.7 24.4 36.0 94.2 86.1 295.5
02 21:40 15.6 58 7.71 7.4 22 26 1020.1 0 17.6 24.2 35.8 93.6 85.4 293.0
02 21:30 15.7 57 7.63 7.2 22 30 1020 0 17.4 24.1 35.4 92.7 84.2 289.1
02 21:20 15.8 56 7.54 7 22 28 1020 0 17.2 23.9 35.0 91.6 83.0 284.8
02 21:10 16.1 54 7.4 6.8 20 24 1019.9 0 16.9 23.6 34.4 89.9 81.0 277.7
02 21:00 16.3 53 7.35 6.7 24 33 1019.9 0 16.8 23.5 34.1 89.2 80.2 274.8
02 20:50 16.5 52 7.3 6.6 22 26 1020.1 0 16.7 23.4 33.8 88.5 79.4 272.1
02 20:40 16.6 50 7.06 6.1 26 30 1019.8 0 16.2 23.0 32.9 86.0 76.3 261.5
02 20:30 16.8 49 7.01 6 24 33 1019.8 0 16.1 22.9 32.6 85.3 75.5 258.7
02 20:20 16.8 49 7.01 6 20 24 1019.3 0 16.1 22.8 32.6 85.2 75.5 258.6
02 20:10 17.2 47 6.88 5.8 28 30 1019.4 0 15.8 22.6 32.0 83.6 73.6 251.9
02 20:00 17.3 46 6.78 5.6 30 39 1019.1 0 15.6 22.4 31.6 82.5 72.3 247.4
02 19:50 17.9 46 7.02 6.1 22 26 1018.5 0 16.1 22.6 32.2 84.1 74.5 255.3
02 19:40 18.1 44 6.8 5.7 32 35 1018.9 0 15.6 22.2 31.3 81.8 71.8 245.7
02 19:30 18.5 42 6.64 5.4 30 39 1018.7 0 15.2 21.9 30.6 79.9 69.6 238.0
02 19:20 18.9 40 6.48 5 28 32 1018.5 0 14.9 21.6 29.9 78.0 67.4 230.3
02 19:10 19.2 41 6.76 5.6 28 35 1017.8 0 15.5 21.9 30.7 80.3 70.3 240.6
02 19:00 19.2 42 6.92 6 28 35 1017.9 0 15.8 22.1 31.3 81.8 72.1 247.1
02 18:50 19.3 41 6.8 5.7 30 35 1017.9 0 15.5 21.9 30.9 80.6 70.7 241.9
02 18:40 20 42 7.26 6.7 26 30 1017.9 0 16.5 22.4 32.2 84.2 75.3 258.4
02 18:30 19.6 43 7.26 6.7 30 41 1017.6 0 16.5 22.5 32.3 84.6 75.7 259.6
02 18:20 19.6 43 7.26 6.7 30 33 1017.9 0 16.5 22.5 32.4 84.6 75.7 259.7
02 18:10 20.8 39 7.06 6.4 39 43 1017.6 0 16.0 21.9 31.2 81.5 72.3 247.8
02 18:00 20.6 40 7.16 6.5 35 46 1017.2 0 16.2 22.1 31.6 82.6 73.6 252.4
02 17:50 21.4 38 7.12 6.5 35 39 1017 0 16.1 21.8 31.1 81.4 72.4 248.3
02 17:40 21.9 35 6.75 5.8 33 41 1016.8 0 15.3 21.2 29.7 77.5 67.8 232.2
02 17:30 21 37 6.78 5.8 33 43 1016.9 0 15.4 21.4 30.1 78.6 68.9 236.0
02 17:20 22 39 7.57 7.4 33 43 1017.1 0 17.0 22.3 32.5 84.9 77.0 264.4
02 17:10 21.6 39 7.4 7.1 32 37 1017.2 0 16.7 22.2 32.0 83.8 75.4 258.9
02 17:00 22.8 32 6.5 5.3 32 39 1016.9 0 14.8 20.6 28.5 74.5 64.3 220.1
02 16:50 23.9 29 6.27 4.8 28 33 1017.3 0 14.3 20.1 27.4 71.5 61.1 208.7
02 16:40 23.9 30 6.49 5.3 32 39 1017.3 0 14.7 20.4 28.2 73.4 63.4 216.9
02 16:30 24.5 29 6.49 5.3 28 39 1017.5 0 14.7 20.3 28.0 72.9 63.0 215.4
02 16:20 24.4 31 6.9 6.2 33 37 1017.5 0 15.6 20.8 29.3 76.6 67.4 231.1
02 16:10 25.2 31 7.22 6.9 28 33 1017.4 0 16.2 21.1 30.1 78.6 70.2 241.0
02 16:00 25.1 30 6.94 6.3 26 37 1017.3 0 15.6 20.7 29.2 76.3 67.3 230.6
02 15:50 25.2 30 6.98 6.4 24 28 1017.2 0 15.7 20.8 29.3 76.5 67.6 231.8
02 15:40 25.4 29 6.83 6.1 26 32 1017.1 0 15.4 20.5 28.7 75.0 65.8 225.6

Last Refresh: 03-Dec-2021 08:32:12

Bureau of Meteorology